sensor_id;sensor_type;location;lat;lon;timestamp;pressure;altitude;pressure_sealevel;temperature;humidity
21803;BME280;18591;47.080;22.214;2022-12-04T00:00:28;100379.16;;;7.60;59.89
21803;BME280;18591;47.080;22.214;2022-12-04T00:02:30;100377.38;;;7.60;59.64
21803;BME280;18591;47.080;22.214;2022-12-04T00:04:33;100380.88;;;7.64;59.55
21803;BME280;18591;47.080;22.214;2022-12-04T00:06:38;100380.00;;;7.63;59.66
21803;BME280;18591;47.080;22.214;2022-12-04T00:08:41;100372.91;;;7.59;59.70
21803;BME280;18591;47.080;22.214;2022-12-04T00:10:44;100376.47;;;7.60;59.83
21803;BME280;18591;47.080;22.214;2022-12-04T00:12:46;100380.97;;;7.58;59.69
21803;BME280;18591;47.080;22.214;2022-12-04T00:14:48;100381.03;;;7.53;59.78
21803;BME280;18591;47.080;22.214;2022-12-04T00:17:10;100383.69;;;7.53;59.59
21803;BME280;18591;47.080;22.214;2022-12-04T00:19:13;100391.78;;;7.50;59.81
21803;BME280;18591;47.080;22.214;2022-12-04T00:21:16;100391.72;;;7.52;59.44
21803;BME280;18591;47.080;22.214;2022-12-04T00:23:18;100381.91;;;7.52;59.60
21803;BME280;18591;47.080;22.214;2022-12-04T00:25:21;100381.94;;;7.51;59.58
21803;BME280;18591;47.080;22.214;2022-12-04T00:27:23;100390.81;;;7.56;59.10
21803;BME280;18591;47.080;22.214;2022-12-04T00:29:25;100380.97;;;7.56;59.41
21803;BME280;18591;47.080;22.214;2022-12-04T00:31:29;100383.66;;;7.55;59.29
21803;BME280;18591;47.080;22.214;2022-12-04T00:33:35;100387.22;;;7.58;58.97
21803;BME280;18591;47.080;22.214;2022-12-04T00:35:38;100389.88;;;7.57;58.82
21803;BME280;18591;47.080;22.214;2022-12-04T00:37:41;100390.81;;;7.56;59.25
21803;BME280;18591;47.080;22.214;2022-12-04T00:39:43;100386.38;;;7.52;59.14
21803;BME280;18591;47.080;22.214;2022-12-04T00:41:45;100382.88;;;7.47;59.51
21803;BME280;18591;47.080;22.214;2022-12-04T00:43:47;100383.75;;;7.47;59.59
21803;BME280;18591;47.080;22.214;2022-12-04T00:45:49;100385.56;;;7.48;59.34
21803;BME280;18591;47.080;22.214;2022-12-04T00:47:52;100385.56;;;7.48;59.43
21803;BME280;18591;47.080;22.214;2022-12-04T00:49:54;100377.53;;;7.48;59.34
21803;BME280;18591;47.080;22.214;2022-12-04T00:51:57;100381.09;;;7.47;59.46
21803;BME280;18591;47.080;22.214;2022-12-04T00:53:59;100382.00;;;7.46;59.19
21803;BME280;18591;47.080;22.214;2022-12-04T00:56:06;100375.81;;;7.41;59.55
21803;BME280;18591;47.080;22.214;2022-12-04T00:58:09;100376.69;;;7.41;59.54
21803;BME280;18591;47.080;22.214;2022-12-04T01:00:12;100379.41;;;7.40;59.16
21803;BME280;18591;47.080;22.214;2022-12-04T01:02:14;100375.00;;;7.37;59.68
21803;BME280;18591;47.080;22.214;2022-12-04T01:04:16;100382.13;;;7.35;59.85
21803;BME280;18591;47.080;22.214;2022-12-04T01:06:29;100381.31;;;7.29;59.90
21803;BME280;18591;47.080;22.214;2022-12-04T01:08:32;100383.94;;;7.35;59.46
21803;BME280;18591;47.080;22.214;2022-12-04T01:10:38;100386.59;;;7.33;59.53
21803;BME280;18591;47.080;22.214;2022-12-04T01:12:41;100380.28;;;7.39;59.76
21803;BME280;18591;47.080;22.214;2022-12-04T01:14:43;100375.88;;;7.38;59.61
21803;BME280;18591;47.080;22.214;2022-12-04T01:16:46;100378.50;;;7.41;59.44
21803;BME280;18591;47.080;22.214;2022-12-04T01:18:48;100375.72;;;7.49;59.26
21803;BME280;18591;47.080;22.214;2022-12-04T01:20:54;100379.34;;;7.45;59.13
21803;BME280;18591;47.080;22.214;2022-12-04T01:22:56;100382.00;;;7.46;59.26
21803;BME280;18591;47.080;22.214;2022-12-04T01:24:58;100373.09;;;7.46;59.40
21803;BME280;18591;47.080;22.214;2022-12-04T01:27:00;100376.75;;;7.38;59.31
21803;BME280;18591;47.080;22.214;2022-12-04T01:29:03;100369.66;;;7.36;59.18
21803;BME280;18591;47.080;22.214;2022-12-04T01:31:11;100370.56;;;7.33;59.65
21803;BME280;18591;47.080;22.214;2022-12-04T01:33:14;100369.59;;;7.39;59.22
21803;BME280;18591;47.080;22.214;2022-12-04T01:35:16;100367.81;;;7.39;59.02
21803;BME280;18591;47.080;22.214;2022-12-04T01:37:19;100371.34;;;7.41;58.88
21803;BME280;18591;47.080;22.214;2022-12-04T01:39:21;100381.22;;;7.36;58.80
21803;BME280;18591;47.080;22.214;2022-12-04T01:41:26;100374.16;;;7.32;59.22
21803;BME280;18591;47.080;22.214;2022-12-04T01:43:30;100370.66;;;7.26;59.15
21803;BME280;18591;47.080;22.214;2022-12-04T01:45:53;100372.53;;;7.16;59.48
21803;BME280;18591;47.080;22.214;2022-12-04T01:48:04;100361.75;;;7.24;59.44
21803;BME280;18591;47.080;22.214;2022-12-04T01:50:08;100367.06;;;7.28;59.24
21803;BME280;18591;47.080;22.214;2022-12-04T01:52:14;100359.09;;;7.25;58.90
21803;BME280;18591;47.080;22.214;2022-12-04T01:54:23;100361.72;;;7.28;58.80
21803;BME280;18591;47.080;22.214;2022-12-04T01:56:32;100360.81;;;7.29;58.81
21803;BME280;18591;47.080;22.214;2022-12-04T01:58:39;100359.03;;;7.27;58.50
21803;BME280;18591;47.080;22.214;2022-12-04T02:00:43;100361.72;;;7.28;58.90
21803;BME280;18591;47.080;22.214;2022-12-04T02:02:52;100368.84;;;7.28;58.88
21803;BME280;18591;47.080;22.214;2022-12-04T02:04:55;100372.50;;;7.22;59.07
21803;BME280;18591;47.080;22.214;2022-12-04T02:06:57;100370.75;;;7.18;59.08
21803;BME280;18591;47.080;22.214;2022-12-04T02:09:00;100368.06;;;7.19;59.15
21803;BME280;18591;47.080;22.214;2022-12-04T02:13:20;100372.56;;;7.14;58.81
21803;BME280;18591;47.080;22.214;2022-12-04T02:15:50;100372.53;;;7.16;58.89
21803;BME280;18591;47.080;22.214;2022-12-04T02:18:09;100375.31;;;7.07;59.15
21803;BME280;18591;47.080;22.214;2022-12-04T02:20:21;100378.84;;;7.09;58.73
21803;BME280;18591;47.080;22.214;2022-12-04T02:29:50;100369.06;;;7.06;58.63
21803;BME280;18591;47.080;22.214;2022-12-04T02:34:17;100373.56;;;7.04;58.60
21803;BME280;18591;47.080;22.214;2022-12-04T02:36:28;100373.53;;;7.07;58.48
21803;BME280;18591;47.080;22.214;2022-12-04T02:38:40;100367.31;;;7.04;58.40
21803;BME280;18591;47.080;22.214;2022-12-04T02:40:58;100375.34;;;7.04;58.42
21803;BME280;18591;47.080;22.214;2022-12-04T02:43:18;100375.50;;;6.90;58.67
21803;BME280;18591;47.080;22.214;2022-12-04T02:45:31;100369.22;;;6.91;58.90
21803;BME280;18591;47.080;22.214;2022-12-04T02:47:40;100363.03;;;6.89;59.17
21803;BME280;18591;47.080;22.214;2022-12-04T02:49:46;100361.25;;;6.88;58.95
21803;BME280;18591;47.080;22.214;2022-12-04T02:51:52;100349.72;;;6.84;58.97
21803;BME280;18591;47.080;22.214;2022-12-04T02:53:58;100355.09;;;6.80;58.93
21803;BME280;18591;47.080;22.214;2022-12-04T02:56:15;100349.81;;;6.76;59.10
21803;BME280;18591;47.080;22.214;2022-12-04T02:58:51;100355.22;;;6.69;59.32
21803;BME280;18591;47.080;22.214;2022-12-04T03:00:57;100364.19;;;6.62;59.15
21803;BME280;18591;47.080;22.214;2022-12-04T03:03:05;100361.50;;;6.63;59.29
21803;BME280;18591;47.080;22.214;2022-12-04T03:05:12;100373.94;;;6.63;59.68
21803;BME280;18591;47.080;22.214;2022-12-04T03:07:17;100368.59;;;6.64;59.50
21803;BME280;18591;47.080;22.214;2022-12-04T03:09:27;100366.00;;;6.58;59.89
21803;BME280;18591;47.080;22.214;2022-12-04T03:11:33;100363.28;;;6.61;59.58
21803;BME280;18591;47.080;22.214;2022-12-04T03:14:00;100362.41;;;6.59;59.72
21803;BME280;18591;47.080;22.214;2022-12-04T03:16:16;100357.88;;;6.67;59.68
21803;BME280;18591;47.080;22.214;2022-12-04T03:18:25;100354.25;;;6.74;59.12
21803;BME280;18591;47.080;22.214;2022-12-04T03:20:31;100346.28;;;6.71;59.04
21803;BME280;18591;47.080;22.214;2022-12-04T03:22:36;100351.59;;;6.73;59.58
21803;BME280;18591;47.080;22.214;2022-12-04T03:24:45;100360.53;;;6.72;59.73
21803;BME280;18591;47.080;22.214;2022-12-04T03:30:06;100357.91;;;6.64;59.99
21803;BME280;18591;47.080;22.214;2022-12-04T03:34:53;100363.22;;;6.69;59.78
21803;BME280;18591;47.080;22.214;2022-12-04T03:36:58;100356.03;;;6.79;59.55
21803;BME280;18591;47.080;22.214;2022-12-04T03:44:02;100355.06;;;6.83;60.13
21803;BME280;18591;47.080;22.214;2022-12-04T03:46:11;100351.53;;;6.82;59.54
21803;BME280;18591;47.080;22.214;2022-12-04T03:48:21;100354.19;;;6.81;60.01
21803;BME280;18591;47.080;22.214;2022-12-04T03:50:35;100349.72;;;6.83;60.10
21803;BME280;18591;47.080;22.214;2022-12-04T03:52:47;100358.69;;;6.77;60.19
21803;BME280;18591;47.080;22.214;2022-12-04T03:55:14;100358.63;;;6.83;59.55
21803;BME280;18591;47.080;22.214;2022-12-04T03:57:23;100359.47;;;6.91;59.35
21803;BME280;18591;47.080;22.214;2022-12-04T03:59:33;100371.94;;;6.88;59.53
21803;BME280;18591;47.080;22.214;2022-12-04T04:01:42;100365.75;;;6.83;59.82
21803;BME280;18591;47.080;22.214;2022-12-04T04:03:51;100363.03;;;6.86;59.83
21803;BME280;18591;47.080;22.214;2022-12-04T04:05:58;100368.50;;;6.75;59.61
21803;BME280;18591;47.080;22.214;2022-12-04T04:08:06;100364.94;;;6.76;59.43
21803;BME280;18591;47.080;22.214;2022-12-04T04:10:27;100362.22;;;6.81;59.13
21803;BME280;18591;47.080;22.214;2022-12-04T04:12:33;100361.38;;;6.75;59.49
21803;BME280;18591;47.080;22.214;2022-12-04T04:14:51;100357.81;;;6.75;59.33
21803;BME280;18591;47.080;22.214;2022-12-04T04:17:15;100354.25;;;6.76;59.02
21803;BME280;18591;47.080;22.214;2022-12-04T04:19:40;100349.91;;;6.64;59.02
21803;BME280;18591;47.080;22.214;2022-12-04T04:22:05;100351.66;;;6.67;58.80
21803;BME280;18591;47.080;22.214;2022-12-04T04:24:34;100344.53;;;6.69;59.08
21803;BME280;18591;47.080;22.214;2022-12-04T04:26:42;100350.81;;;6.63;58.95
21803;BME280;18591;47.080;22.214;2022-12-04T04:28:45;100349.91;;;6.66;59.40
21803;BME280;18591;47.080;22.214;2022-12-04T04:30:47;100350.75;;;6.69;59.37
21803;BME280;18591;47.080;22.214;2022-12-04T04:33:07;100352.66;;;6.57;58.72
21803;BME280;18591;47.080;22.214;2022-12-04T04:40:37;100349.13;;;6.53;58.75
21803;BME280;18591;47.080;22.214;2022-12-04T04:47:15;100361.72;;;6.36;59.02
21803;BME280;18591;47.080;22.214;2022-12-04T04:49:24;100352.81;;;6.38;59.06
21803;BME280;18591;47.080;22.214;2022-12-04T04:51:30;100346.59;;;6.36;59.08
21803;BME280;18591;47.080;22.214;2022-12-04T04:53:41;100357.25;;;6.39;59.05
21803;BME280;18591;47.080;22.214;2022-12-04T04:55:46;100345.72;;;6.37;59.14
21803;BME280;18591;47.080;22.214;2022-12-04T04:57:48;100340.47;;;6.25;59.48
21803;BME280;18591;47.080;22.214;2022-12-04T04:59:51;100343.16;;;6.20;59.60
21803;BME280;18591;47.080;22.214;2022-12-04T05:01:56;100340.50;;;6.19;59.61
21803;BME280;18591;47.080;22.214;2022-12-04T05:04:00;100344.03;;;6.21;59.54
21803;BME280;18591;47.080;22.214;2022-12-04T05:06:02;100339.59;;;6.23;59.18
21803;BME280;18591;47.080;22.214;2022-12-04T05:08:04;100341.38;;;6.21;59.29
21803;BME280;18591;47.080;22.214;2022-12-04T05:10:07;100343.16;;;6.20;59.26
21803;BME280;18591;47.080;22.214;2022-12-04T05:12:10;100350.28;;;6.20;59.45
21803;BME280;18591;47.080;22.214;2022-12-04T05:14:12;100354.72;;;6.22;59.95
21803;BME280;18591;47.080;22.214;2022-12-04T05:16:15;100353.84;;;6.22;59.49
21803;BME280;18591;47.080;22.214;2022-12-04T05:18:18;100352.03;;;6.21;59.70
21803;BME280;18591;47.080;22.214;2022-12-04T05:20:20;100344.97;;;6.14;59.83
21803;BME280;18591;47.080;22.214;2022-12-04T05:22:28;100349.38;;;6.21;60.06
21803;BME280;18591;47.080;22.214;2022-12-04T05:24:31;100354.75;;;6.19;59.73
21803;BME280;18591;47.080;22.214;2022-12-04T05:26:33;100359.16;;;6.23;59.73
21803;BME280;18591;47.080;22.214;2022-12-04T05:28:35;100360.06;;;6.21;59.65
21803;BME280;18591;47.080;22.214;2022-12-04T05:30:38;100357.41;;;6.19;59.62
21803;BME280;18591;47.080;22.214;2022-12-04T05:32:40;100351.19;;;6.16;59.54
21803;BME280;18591;47.080;22.214;2022-12-04T05:34:42;100343.16;;;6.19;59.29
21803;BME280;18591;47.080;22.214;2022-12-04T05:36:44;100346.75;;;6.13;60.06
21803;BME280;18591;47.080;22.214;2022-12-04T05:38:47;100342.31;;;6.14;60.32
21803;BME280;18591;47.080;22.214;2022-12-04T05:40:49;100346.75;;;6.19;59.73
21803;BME280;18591;47.080;22.214;2022-12-04T05:42:51;100350.38;;;6.06;59.51
21803;BME280;18591;47.080;22.214;2022-12-04T05:44:56;100339.69;;;6.09;59.70
21803;BME280;18591;47.080;22.214;2022-12-04T05:46:58;100351.22;;;6.11;59.78
21803;BME280;18591;47.080;22.214;2022-12-04T05:49:01;100345.03;;;6.09;60.02
21803;BME280;18591;47.080;22.214;2022-12-04T05:51:07;100349.47;;;6.08;59.91
21803;BME280;18591;47.080;22.214;2022-12-04T05:53:09;100354.81;;;6.12;59.65
21803;BME280;18591;47.080;22.214;2022-12-04T05:55:12;100358.38;;;6.07;59.99
21803;BME280;18591;47.080;22.214;2022-12-04T05:57:17;100364.63;;;6.06;60.31
21803;BME280;18591;47.080;22.214;2022-12-04T05:59:19;100362.81;;;6.08;60.22
21803;BME280;18591;47.080;22.214;2022-12-04T06:01:22;100368.13;;;6.10;60.08
21803;BME280;18591;47.080;22.214;2022-12-04T06:03:24;100366.34;;;6.12;59.48
21803;BME280;18591;47.080;22.214;2022-12-04T06:05:27;100364.59;;;6.09;59.17
21803;BME280;18591;47.080;22.214;2022-12-04T06:07:29;100370.84;;;6.05;59.55
21803;BME280;18591;47.080;22.214;2022-12-04T06:09:32;100368.16;;;6.07;59.59
21803;BME280;18591;47.080;22.214;2022-12-04T06:11:36;100374.34;;;6.10;59.36
21803;BME280;18591;47.080;22.214;2022-12-04T06:13:43;100376.19;;;6.01;59.13
21803;BME280;18591;47.080;22.214;2022-12-04T06:15:45;100378.84;;;6.07;58.94
21803;BME280;18591;47.080;22.214;2022-12-04T06:17:47;100381.50;;;6.07;59.08
21803;BME280;18591;47.080;22.214;2022-12-04T06:19:49;100374.44;;;5.97;58.91
21803;BME280;18591;47.080;22.214;2022-12-04T06:21:54;100378.00;;;5.96;59.01
21803;BME280;18591;47.080;22.214;2022-12-04T06:23:57;100385.97;;;6.00;58.93
21803;BME280;18591;47.080;22.214;2022-12-04T06:26:06;100379.75;;;5.98;59.05
21803;BME280;18591;47.080;22.214;2022-12-04T06:28:09;100376.19;;;6.02;59.22
21803;BME280;18591;47.080;22.214;2022-12-04T06:30:12;100390.41;;;6.04;59.24
21803;BME280;18591;47.080;22.214;2022-12-04T06:32:19;100383.28;;;6.06;59.06
21803;BME280;18591;47.080;22.214;2022-12-04T06:34:22;100392.16;;;6.05;59.11
21803;BME280;18591;47.080;22.214;2022-12-04T06:36:25;100397.56;;;5.99;59.62
21803;BME280;18591;47.080;22.214;2022-12-04T06:38:28;100390.41;;;6.03;59.59
21803;BME280;18591;47.080;22.214;2022-12-04T06:40:30;100398.38;;;6.10;59.65
21803;BME280;18591;47.080;22.214;2022-12-04T06:42:32;100392.19;;;6.02;59.60
21803;BME280;18591;47.080;22.214;2022-12-04T06:44:35;100397.50;;;6.05;60.03
21803;BME280;18591;47.080;22.214;2022-12-04T06:46:37;100394.81;;;6.08;59.82
21803;BME280;18591;47.080;22.214;2022-12-04T06:48:48;100398.34;;;6.14;60.04
21803;BME280;18591;47.080;22.214;2022-12-04T06:51:00;100403.69;;;6.14;59.96
21803;BME280;18591;47.080;22.214;2022-12-04T06:53:02;100397.44;;;6.19;59.68
21803;BME280;18591;47.080;22.214;2022-12-04T06:55:09;100399.22;;;6.16;60.16
21803;BME280;18591;47.080;22.214;2022-12-04T06:57:11;100394.81;;;6.10;59.96
21803;BME280;18591;47.080;22.214;2022-12-04T06:59:13;100388.56;;;6.13;60.37
21803;BME280;18591;47.080;22.214;2022-12-04T07:01:18;100387.66;;;6.20;60.33
21803;BME280;18591;47.080;22.214;2022-12-04T07:03:22;100395.59;;;6.26;60.53
21803;BME280;18591;47.080;22.214;2022-12-04T07:05:26;100388.44;;;6.32;59.97
21803;BME280;18591;47.080;22.214;2022-12-04T07:07:28;100389.34;;;6.35;60.63
21803;BME280;18591;47.080;22.214;2022-12-04T07:09:30;100387.44;;;6.44;60.37
21803;BME280;18591;47.080;22.214;2022-12-04T07:11:33;100392.66;;;6.60;59.89
21803;BME280;18591;47.080;22.214;2022-12-04T07:13:36;100397.94;;;6.69;60.28
21803;BME280;18591;47.080;22.214;2022-12-04T07:15:38;100387.19;;;6.75;60.16
21803;BME280;18591;47.080;22.214;2022-12-04T07:17:40;100390.66;;;6.85;59.85
21803;BME280;18591;47.080;22.214;2022-12-04T07:19:42;100394.19;;;6.91;59.74
21803;BME280;18591;47.080;22.214;2022-12-04T07:21:45;100390.56;;;6.95;59.83
21803;BME280;18591;47.080;22.214;2022-12-04T07:23:55;100393.19;;;6.98;59.87
21803;BME280;18591;47.080;22.214;2022-12-04T07:26:09;100389.53;;;7.09;59.55
21803;BME280;18591;47.080;22.214;2022-12-04T07:28:11;100390.31;;;7.20;59.46
21803;BME280;18591;47.080;22.214;2022-12-04T07:30:14;100385.81;;;7.24;59.47
21803;BME280;18591;47.080;22.214;2022-12-04T07:32:19;100383.88;;;7.38;59.29
21803;BME280;18591;47.080;22.214;2022-12-04T07:34:21;100377.63;;;7.40;59.42
21803;BME280;18591;47.080;22.214;2022-12-04T07:36:24;100377.50;;;7.50;59.82
21803;BME280;18591;47.080;22.214;2022-12-04T07:38:28;100366.69;;;7.57;59.56
21803;BME280;18591;47.080;22.214;2022-12-04T07:40:31;100371.94;;;7.68;59.24
21803;BME280;18591;47.080;22.214;2022-12-04T07:42:33;100362.00;;;7.76;59.41
21803;BME280;18591;47.080;22.214;2022-12-04T07:44:35;100372.63;;;7.82;58.91
21803;BME280;18591;47.080;22.214;2022-12-04T07:46:38;100367.16;;;7.90;58.69
21803;BME280;18591;47.080;22.214;2022-12-04T07:48:41;100376.88;;;7.96;58.63
21803;BME280;18591;47.080;22.214;2022-12-04T07:50:43;100381.19;;;8.07;58.54
21803;BME280;18591;47.080;22.214;2022-12-04T07:52:45;100371.38;;;8.08;58.98
21803;BME280;18591;47.080;22.214;2022-12-04T07:54:48;100371.19;;;8.19;58.87
21803;BME280;18591;47.080;22.214;2022-12-04T07:56:50;100375.53;;;8.27;58.93
21803;BME280;18591;47.080;22.214;2022-12-04T07:58:52;100378.03;;;8.41;58.65
21803;BME280;18591;47.080;22.214;2022-12-04T08:00:54;100373.50;;;8.45;58.60
21803;BME280;18591;47.080;22.214;2022-12-04T08:03:05;100366.19;;;8.55;58.44
21803;BME280;18591;47.080;22.214;2022-12-04T08:05:07;100364.31;;;8.60;58.64
21803;BME280;18591;47.080;22.214;2022-12-04T08:07:09;100368.69;;;8.67;58.85
21803;BME280;18591;47.080;22.214;2022-12-04T08:09:11;100358.81;;;8.69;58.19
21803;BME280;18591;47.080;22.214;2022-12-04T08:11:17;100351.69;;;8.68;58.01
21803;BME280;18591;47.080;22.214;2022-12-04T08:13:20;100363.03;;;8.84;58.26
21803;BME280;18591;47.080;22.214;2022-12-04T08:15:22;100361.97;;;8.94;58.45
21803;BME280;18591;47.080;22.214;2022-12-04T08:17:24;100360.91;;;9.01;58.75
21803;BME280;18591;47.080;22.214;2022-12-04T08:19:27;100359.88;;;9.08;58.06
21803;BME280;18591;47.080;22.214;2022-12-04T08:21:30;100364.97;;;9.22;58.10
21803;BME280;18591;47.080;22.214;2022-12-04T08:23:34;100354.88;;;9.36;58.23
21803;BME280;18591;47.080;22.214;2022-12-04T08:25:40;100351.25;;;9.39;58.16
21803;BME280;18591;47.080;22.214;2022-12-04T08:27:42;100354.69;;;9.46;57.60
21803;BME280;18591;47.080;22.214;2022-12-04T08:29:48;100342.19;;;9.45;57.41
21803;BME280;18591;47.080;22.214;2022-12-04T08:31:50;100348.38;;;9.48;57.77
21803;BME280;18591;47.080;22.214;2022-12-04T08:33:54;100345.56;;;9.53;57.65
21803;BME280;18591;47.080;22.214;2022-12-04T08:35:58;100341.00;;;9.58;58.02
21803;BME280;18591;47.080;22.214;2022-12-04T08:38:00;100339.09;;;9.65;57.77
21803;BME280;18591;47.080;22.214;2022-12-04T08:40:03;100353.53;;;9.59;58.17
21803;BME280;18591;47.080;22.214;2022-12-04T08:42:08;100340.00;;;9.64;58.07
21803;BME280;18591;47.080;22.214;2022-12-04T08:44:10;100340.88;;;9.64;57.95
21803;BME280;18591;47.080;22.214;2022-12-04T08:46:15;100332.06;;;9.57;57.43
21803;BME280;18591;47.080;22.214;2022-12-04T08:48:18;100330.50;;;9.47;57.26
21803;BME280;18591;47.080;22.214;2022-12-04T08:50:20;100330.31;;;9.56;58.08
21803;BME280;18591;47.080;22.214;2022-12-04T08:52:22;100344.47;;;9.63;58.23
21803;BME280;18591;47.080;22.214;2022-12-04T08:54:25;100340.00;;;9.64;58.14
21803;BME280;18591;47.080;22.214;2022-12-04T08:56:33;100339.00;;;9.69;57.87
21803;BME280;18591;47.080;22.214;2022-12-04T08:58:36;100342.47;;;9.74;58.12
21803;BME280;18591;47.080;22.214;2022-12-04T09:00:41;100345.13;;;9.74;57.78
21803;BME280;18591;47.080;22.214;2022-12-04T09:02:44;100336.22;;;9.74;58.05
21803;BME280;18591;47.080;22.214;2022-12-04T09:04:49;100337.03;;;9.76;58.40
21803;BME280;18591;47.080;22.214;2022-12-04T09:06:53;100337.09;;;9.73;58.15
21803;BME280;18591;47.080;22.214;2022-12-04T09:08:56;100328.97;;;9.76;58.21
21803;BME280;18591;47.080;22.214;2022-12-04T09:11:03;100321.84;;;9.76;58.00
21803;BME280;18591;47.080;22.214;2022-12-04T09:13:06;100324.44;;;9.79;57.87
21803;BME280;18591;47.080;22.214;2022-12-04T09:15:09;100326.19;;;9.82;57.90
21803;BME280;18591;47.080;22.214;2022-12-04T09:20:29;100318.91;;;9.87;58.05
21803;BME280;18591;47.080;22.214;2022-12-04T09:22:35;100316.16;;;9.90;58.03
21803;BME280;18591;47.080;22.214;2022-12-04T09:24:57;100327.69;;;9.94;57.81
21803;BME280;18591;47.080;22.214;2022-12-04T09:27:00;100322.22;;;9.98;57.72
21803;BME280;18591;47.080;22.214;2022-12-04T09:29:03;100316.75;;;10.03;57.66
21803;BME280;18591;47.080;22.214;2022-12-04T09:31:05;100317.53;;;10.07;57.66
21803;BME280;18591;47.080;22.214;2022-12-04T09:36:55;100306.50;;;10.20;57.57
21803;BME280;18591;47.080;22.214;2022-12-04T09:38:57;100298.38;;;10.22;57.47
21803;BME280;18591;47.080;22.214;2022-12-04T09:41:22;100297.47;;;10.23;57.10
21803;BME280;18591;47.080;22.214;2022-12-04T09:43:31;100297.41;;;10.26;56.83
21803;BME280;18591;47.080;22.214;2022-12-04T09:45:49;100292.97;;;10.23;56.98
21803;BME280;18591;47.080;22.214;2022-12-04T09:47:57;100286.69;;;10.24;57.31
21803;BME280;18591;47.080;22.214;2022-12-04T09:54:40;100278.47;;;10.32;57.60
21803;BME280;18591;47.080;22.214;2022-12-04T09:56:51;100279.19;;;10.39;57.58
21803;BME280;18591;47.080;22.214;2022-12-04T09:59:16;100286.22;;;10.44;57.76
21803;BME280;18591;47.080;22.214;2022-12-04T10:01:30;100291.47;;;10.49;58.10
21803;BME280;18591;47.080;22.214;2022-12-04T10:03:34;100280.31;;;10.64;58.01
21803;BME280;18591;47.080;22.214;2022-12-04T10:10:02;100272.84;;;10.76;57.37
21803;BME280;18591;47.080;22.214;2022-12-04T10:12:25;100266.56;;;10.77;57.35
21803;BME280;18591;47.080;22.214;2022-12-04T10:14:54;100276.16;;;10.87;57.13
21803;BME280;18591;47.080;22.214;2022-12-04T10:22:24;100274.03;;;10.98;57.20
21803;BME280;18591;47.080;22.214;2022-12-04T10:26:47;100271.88;;;11.11;57.46
21803;BME280;18591;47.080;22.214;2022-12-04T10:28:55;100272.88;;;11.07;56.71
21803;BME280;18591;47.080;22.214;2022-12-04T10:31:01;100275.56;;;11.07;56.81
21803;BME280;18591;47.080;22.214;2022-12-04T10:35:50;100253.78;;;11.16;56.21
21803;BME280;18591;47.080;22.214;2022-12-04T10:37:57;100260.78;;;11.22;55.88
21803;BME280;18591;47.080;22.214;2022-12-04T10:40:14;100255.59;;;11.16;55.95
21803;BME280;18591;47.080;22.214;2022-12-04T10:42:30;100246.88;;;11.07;55.52
21803;BME280;18591;47.080;22.214;2022-12-04T10:44:33;100250.16;;;11.17;55.70
21803;BME280;18591;47.080;22.214;2022-12-04T10:46:36;100252.91;;;11.16;55.75
21803;BME280;18591;47.080;22.214;2022-12-04T10:48:48;100255.50;;;11.19;55.85
21803;BME280;18591;47.080;22.214;2022-12-04T10:50:51;100246.28;;;11.27;56.03
21803;BME280;18591;47.080;22.214;2022-12-04T10:52:55;100249.81;;;11.29;56.26
21803;BME280;18591;47.080;22.214;2022-12-04T10:55:00;100240.84;;;11.30;56.32
21803;BME280;18591;47.080;22.214;2022-12-04T10:57:05;100237.97;;;11.35;56.46
21803;BME280;18591;47.080;22.214;2022-12-04T10:59:14;100234.31;;;11.38;56.16
21803;BME280;18591;47.080;22.214;2022-12-04T11:01:20;100234.19;;;11.42;55.99
21803;BME280;18591;47.080;22.214;2022-12-04T11:03:26;100236.59;;;11.51;56.07
21803;BME280;18591;47.080;22.214;2022-12-04T11:05:59;100230.00;;;11.62;55.48
21803;BME280;18591;47.080;22.214;2022-12-04T11:08:06;100228.72;;;11.73;55.25
21803;BME280;18591;47.080;22.214;2022-12-04T11:10:30;100230.59;;;11.71;53.90
21803;BME280;18591;47.080;22.214;2022-12-04T11:12:34;100223.06;;;11.83;54.77
21803;BME280;18591;47.080;22.214;2022-12-04T11:14:37;100221.16;;;11.86;54.51
21803;BME280;18591;47.080;22.214;2022-12-04T11:16:48;100218.31;;;11.91;54.25
21803;BME280;18591;47.080;22.214;2022-12-04T11:19:00;100215.38;;;11.98;54.38
21803;BME280;18591;47.080;22.214;2022-12-04T11:21:03;100207.16;;;12.03;54.25
21803;BME280;18591;47.080;22.214;2022-12-04T11:23:13;100216.97;;;12.04;54.71
21803;BME280;18591;47.080;22.214;2022-12-04T11:25:19;100206.06;;;12.09;53.78
21803;BME280;18591;47.080;22.214;2022-12-04T11:27:33;100213.13;;;12.13;53.88
21803;BME280;18591;47.080;22.214;2022-12-04T11:29:40;100216.47;;;12.19;55.03
21803;BME280;18591;47.080;22.214;2022-12-04T11:31:53;100207.41;;;12.22;55.25
21803;BME280;18591;47.080;22.214;2022-12-04T11:34:02;100204.44;;;12.30;55.63
21803;BME280;18591;47.080;22.214;2022-12-04T11:36:30;100193.66;;;12.30;55.86
21803;BME280;18591;47.080;22.214;2022-12-04T11:38:34;100191.78;;;12.32;56.00
21803;BME280;18591;47.080;22.214;2022-12-04T11:40:37;100189.06;;;12.33;56.04
21803;BME280;18591;47.080;22.214;2022-12-04T11:42:39;100180.88;;;12.36;56.08
21803;BME280;18591;47.080;22.214;2022-12-04T11:46:55;100187.84;;;12.42;56.14
21803;BME280;18591;47.080;22.214;2022-12-04T11:48:58;100186.09;;;12.41;56.15
21803;BME280;18591;47.080;22.214;2022-12-04T11:53:25;100180.44;;;12.49;56.69
21803;BME280;18591;47.080;22.214;2022-12-04T12:12:16;100183.88;;;12.77;56.57
21803;BME280;18591;47.080;22.214;2022-12-04T12:20:54;100180.03;;;12.84;55.76
21803;BME280;18591;47.080;22.214;2022-12-04T12:23:29;100179.41;;;12.76;56.07
21803;BME280;18591;47.080;22.214;2022-12-04T12:30:21;100164.94;;;12.79;56.65